Wednesday, April 16, 2014, 9:50 AM EDT

KESN, Easton / Newman Field

Location: Easton, MD, United States Lat: 38.8
Local Time: 9:50 AM EDT (13:50 GMT) Lon: -76.067
Time Zone: US/Eastern Elev: 72 ft

Show me the last for .
Show Decoded

2014-04-16 08:50 METAR KESN 161250Z 01010G21T 10SM SKC 03/M08 A3038 =
2014-04-16 07:50 METAR KESN 161150Z 35012G18KT 10SM SKC 02/M07 A3035 =
2014-04-16 06:50 METAR KESN 161050Z 35009G17KT 10SM SKC 02/M06 A3030 =
2014-04-16 06:24 METAR KESN 161024Z AUTO 36011G18KT 10SM CLR 01/M05 A3027 RMK AO2 T00131055 =
2014-04-16 06:23 METAR KESN 161023Z AUTO 36009G18KT 10SM CLR 01/M05 A3027 =
2014-04-16 06:18 METAR KESN 161023Z AUTO 36009G18KT 10SM CLR 01/M05 A3027 RMK AO2 T00131055 =
2014-04-16 06:03 METAR KESN 161003Z AUTO 36013G20KT 10SM CLR 02/M05 A3026 RMK AO2 T00151055 =
2014-04-16 05:53 METAR KESN 160953Z 35013G20KT 10SM SKC 02/M06 A3026 =
2014-04-16 05:43 METAR KESN 160943Z AUTO 01011G15KT 10SM CLR 02/M05 A3024 RMK AO2 T00171055 =
2014-04-16 05:23 METAR KESN 160923Z AUTO 35013G17KT 10SM CLR 02/M05 A3024 =
2014-04-16 05:21 METAR KESN 160923Z AUTO 35013G17KT 10SM CLR 02/M05 A3024 RMK AO2 T00201049 =
2014-04-16 05:03 METAR KESN 160903Z AUTO 36011G16KT 10SM SCT041 02/M04 A3021 =
2014-04-16 05:01 METAR KESN 160903Z AUTO 36011G16KT 10SM SCT041 02/M04 A3021 RMK AO2 T00201045 =
2014-04-16 04:41 METAR KESN 160843Z AUTO 35012G20KT 10SM BKN041 02/M04 A3020 =
2014-04-16 04:41 METAR KESN 160843Z AUTO 35012G20KT 10SM BKN041 02/M04 A3020 RMK AO2 T00241044 =
2014-04-16 04:23 METAR KESN 160823Z AUTO 35014G18KT 320V020 10SM BKN041 03/M04 A3019 =
2014-04-16 04:18 METAR KESN 160823Z AUTO 35014G18KT 320V020 10SM BKN041 03/M04 A3019 RMK AO2
                 T00251038 =
2014-04-16 04:03 METAR KESN 160803Z AUTO 01010G21KT 10SM SCT043 03/M04 A3017 =
2014-04-16 04:02 METAR KESN 160803Z AUTO 01010G21KT 10SM SCT043 03/M04 A3017 RMK AO2 T00281045 =
2014-04-16 03:41 METAR KESN 160743Z AUTO 36013G19KT 10SM CLR 03/M05 A3017 =
2014-04-16 03:41 METAR KESN 160743Z AUTO 36013G19KT 10SM CLR 03/M05 A3017 RMK AO2 T00291047 =
2014-04-16 03:23 METAR KESN 160723Z AUTO 35019G30KT 10SM SCT045 03/M05 A3015 =
2014-04-16 03:16 METAR KESN 160723Z AUTO 35019G30KT 10SM SCT045 03/M05 A3015 RMK AO2 T00321048 =
2014-04-16 03:03 METAR KESN 160703Z AUTO 35019G28KT 10SM CLR 03/M04 A3011 =
2014-04-16 03:02 METAR KESN 160703Z AUTO 35019G28KT 10SM CLR 03/M04 A3011 RMK AO2 T00321045 =
2014-04-16 02:41 METAR KESN 160643Z AUTO 35013G25KT 10SM CLR 04/M04 A3008 RMK AO2 T00371038 =
2014-04-16 02:41 METAR KESN 160643Z AUTO 35013G25KT 10SM CLR 04/M04 A3008 =
2014-04-16 02:22 METAR KESN 160622Z AUTO 35017G23KT 10SM CLR 04/M03 A3008 =
2014-04-16 02:16 METAR KESN 160622Z AUTO 35017G23KT 10SM CLR 04/M03 A3008 RMK AO2 T00381028 =
2014-04-16 02:02 METAR KESN 160602Z AUTO 35014G25KT 10SM CLR 04/M02 A3006 =
2014-04-16 02:01 METAR KESN 160602Z AUTO 35014G25KT 10SM CLR 04/M02 A3006 RMK AO2 T00431022 =
2014-04-16 01:17 METAR KESN 160522Z AUTO 35016G23KT 10SM SCT038 05/M01 A3007 =
2014-04-16 01:16 METAR KESN 160522Z AUTO 35016G23KT 10SM SCT038 05/M01 A3007 RMK AO2 T00481008 =
2014-04-16 01:02 METAR KESN 160502Z AUTO 34016G29KT 10SM BKN038 05/00 A3005 RMK AO2 T00481003 =
2014-04-16 00:42 METAR KESN 160442Z AUTO 35015G22KT 10SM SCT036 05/01 A3005 RMK AO2 T00490012 =
2014-04-16 00:21 METAR KESN 160422Z AUTO 34013G26KT 10SM SCT032 SCT037 05/01 A3005 =
2014-04-16 00:19 METAR KESN 160422Z AUTO 34013G26KT 10SM SCT032 SCT037 05/01 A3005 RMK AO2
                 T00490012 =
2014-04-16 00:02 METAR KESN 160402Z AUTO 35013G19KT 10SM SCT009 SCT015 BKN030 04/03 A3000 RMK AO2
                 T00440032 =
2014-04-15 23:42 METAR KESN 160342Z AUTO 36011G18KT 4SM UP BKN009 BKN013 04/04 A3002 RMK AO2
                 P0007 T00350035 =
2014-04-15 23:21 METAR KESN 160322Z AUTO 36013G23KT 3SM -RA OVC011 04/04 A3002 =
2014-04-15 23:19 METAR KESN 160322Z AUTO 36013G23KT 3SM -RA OVC011 04/04 A3002 RMK AO2 P0004
                 T00350035 =
2014-04-15 23:02 METAR KESN 160302Z AUTO 01016G26KT 3SM -SN OVC009 03/03 A3000 RMK AO2 P0001
                 T00340034 =
2014-04-15 22:41 METAR KESN 160242Z AUTO 36016G22KT 2SM -SN OVC011 03/03 A2999 =
2014-04-15 22:41 METAR KESN 160242Z AUTO 36016G22KT 2SM -SN OVC011 03/03 A2999 RMK AO2 P0014
                 T00330033 =
2014-04-15 20:45 METAR KESN 160045Z 35013G25KT 5SM -RA BKN011 BKN017 OVC022 07/06 A2995 RMK
                 PRESRR =
2014-04-15 19:47 METAR KESN 152347Z 01016G28KT 5SM -RA BKN009 OVC017 07/07 A2986 =
2014-04-15 18:50 METAR KESN 152250Z 36016G23KT 5SM -RA BKN009 OVC014 08/08 A2981 =
2014-04-15 17:45 METAR KESN 152145Z 33015G25KT 4SM -RA BR BKN007 BKN014 OVC035 09/09 A2975 =
2014-04-15 16:45 METAR KESN 152045Z 33013G20KT 2 1/2SM +RA BR BKN008 BKN012 OVC018 13/13 A2971 =
2014-04-15 15:50 METAR KESN 151950Z 31011G20KT 6SM RA BR BKN015 OVC033 15/13 A2966 =
2014-04-15 13:53 METAR KESN 151753Z 19017G22KT 10SM FEW020 SCT040 OVC080 20/20 A2962 =
2014-04-15 12:50 METAR KESN 151650Z 21015G21KT 10SM FEW011 BKN050 OVC080 21/21 A2963 =
2014-04-15 12:30 METAR KESN 151630Z 20017G24KT 7SM FEW011 OVC060 21/21 A2963 =
2014-04-15 11:50 METAR KESN 151550Z 19017G24KT 7SM OVC011 21/21 A2964 =
2014-04-15 10:50 METAR KESN 151450Z 18020G30KT 3SM -RA OVC011 20/20 A2966 =

Support USWX by starting your Amazon purchase here.